Serval — J8B4154 — position and weather

sailwx.info

Track history (hours):
 
Tides and Currents Weather Stations Pressure Air Temp Water Temp Dewpoint Dewpoint Depression Visibility Wind Speed Wind Dir Waves Ship Positions

Serval

Last reported at 2017-Nov-23 10:58 UTC. Time now 2017-Nov-25 00:16 UTC.
Position N 54°41' E 013°50'.

Length 30 m; draft 5 m.

Type: . MMSI: 377103000.

Date/timePositionNaut miles runAvg speedWind from/ knotsBaromVisibWave heightAir tempDewpointWater temp
2017-Nov-23 10:58N 54°41' E 013°50'  
2017-Nov-16 02:37N 54°57' E 018°12'4 7.2
2017-Nov-16 02:06N 54°57' E 018°19'1 7.3
2017-Nov-16 02:00N 54°56' E 018°20'4 7.2
2017-Nov-16 01:30N 54°56' E 018°26'4 7.3
2017-Nov-16 01:00N 54°54' E 018°32'4 7.5
2017-Nov-16 00:30N 54°53' E 018°37'4 7.6
2017-Nov-16 00:00N 54°51' E 018°43'4 7.7
2017-Nov-15 23:30N 54°48' E 018°47'4 8.1
2017-Nov-15 23:00N 54°45' E 018°52'4 8.1
2017-Nov-15 22:30N 54°41' E 018°56'4 7.3
2017-Nov-15 22:00N 54°38' E 018°55'4 8.6
2017-Nov-15 21:30N 54°34' E 018°52'4 7.4
2017-Nov-15 21:00N 54°32' E 018°46'4 7.5
2017-Nov-15 20:30N 54°32' E 018°40'4 7.3
2017-Nov-15 20:00N 54°32' E 018°34'1 2.7
2017-Nov-15 19:29N 54°32' E 018°31'0 0.0
2017-Nov-15 18:59N 54°32' E 018°31'0 0.0
2017-Nov-15 18:29N 54°32' E 018°31'0 0.0
2017-Nov-15 17:59N 54°32' E 018°31'0 0.0
2017-Nov-15 17:29N 54°32' E 018°31'0 0.0
2017-Nov-15 16:59N 54°32' E 018°31'0 0.0
2017-Nov-15 16:29N 54°32' E 018°31'0 0.0
2017-Nov-15 15:59N 54°32' E 018°31'0 0.0
2017-Nov-15 15:29N 54°32' E 018°31'0 0.0
2017-Nov-15 14:59N 54°32' E 018°31'0 0.0
2017-Nov-15 14:29N 54°32' E 018°31'0 0.0
2017-Nov-15 13:59N 54°32' E 018°31'0 0.0
2017-Nov-15 13:29N 54°32' E 018°31'0 0.0
2017-Nov-15 12:59N 54°32' E 018°31'0 0.0
2017-Nov-15 12:29N 54°32' E 018°31'0 0.0
2017-Nov-15 11:59N 54°32' E 018°31'0 0.0
2017-Nov-15 11:29N 54°32' E 018°31'0 0.0
2017-Nov-15 10:59N 54°32' E 018°31'0 0.0
2017-Nov-15 10:29N 54°32' E 018°31'0 0.0
2017-Nov-15 09:59N 54°32' E 018°31'0 0.0
2017-Nov-15 09:29N 54°32' E 018°31'0 0.0
2017-Nov-15 08:59N 54°32' E 018°31'0 0.0
2017-Nov-15 08:29N 54°32' E 018°31'0 0.0
2017-Nov-15 07:59N 54°32' E 018°31'0 0.0
2017-Nov-15 07:29N 54°32' E 018°31'0 0.0
2017-Nov-15 06:59N 54°32' E 018°31'0 0.0
2017-Nov-15 06:29N 54°32' E 018°31'0 0.0
2017-Nov-15 05:59N 54°32' E 018°31'0 0.0
2017-Nov-15 05:29N 54°32' E 018°31'0 0.0
2017-Nov-15 04:59N 54°32' E 018°31'0 0.0
2017-Nov-15 04:29N 54°32' E 018°31'0 0.0
2017-Nov-15 03:59N 54°32' E 018°31'0 0.0
2017-Nov-15 03:29N 54°32' E 018°31'0 0.0
2017-Nov-15 02:59N 54°32' E 018°31'0 0.0
2017-Nov-15 02:29N 54°32' E 018°31'0 0.0
2017-Nov-15 01:59N 54°32' E 018°31'0 0.0
2017-Nov-15 01:29N 54°32' E 018°31'0 0.0
2017-Nov-15 00:59N 54°32' E 018°31'0 0.0
2017-Nov-15 00:29N 54°32' E 018°31'0 0.0
2017-Nov-14 23:59N 54°32' E 018°31'0 0.0
2017-Nov-14 23:29N 54°32' E 018°31'0 0.0
2017-Nov-14 22:59N 54°32' E 018°31'0 0.0
2017-Nov-14 22:29N 54°32' E 018°31'0 0.0
2017-Nov-14 21:59N 54°32' E 018°31'0 0.0
2017-Nov-14 21:29N 54°32' E 018°31'0 0.0
2017-Nov-14 20:59N 54°32' E 018°31'0 0.0
2017-Nov-14 20:26N 54°32' E 018°31'0 0.0
2017-Nov-14 19:59N 54°32' E 018°31'0 0.0
2017-Nov-14 19:29N 54°32' E 018°31'0 0.0
2017-Nov-14 18:59N 54°32' E 018°31'0 0.0
2017-Nov-14 18:29N 54°32' E 018°31'0 0.0
2017-Nov-14 17:59N 54°32' E 018°31'0 0.0
2017-Nov-14 17:29N 54°32' E 018°31'0 0.0
2017-Nov-14 16:59N 54°32' E 018°31'0 0.0
2017-Nov-14 16:29N 54°32' E 018°31'0 0.0
2017-Nov-14 15:59N 54°32' E 018°31'0 0.0
2017-Nov-14 15:29N 54°32' E 018°31'0 0.0
2017-Nov-14 14:59N 54°32' E 018°31'0 0.0
2017-Nov-14 14:29N 54°32' E 018°31'0 0.0
2017-Nov-14 13:59N 54°32' E 018°31'0 0.0
2017-Nov-14 13:29N 54°32' E 018°31'0 0.0
2017-Nov-14 12:59N 54°32' E 018°31'0 0.0
2017-Nov-14 12:29N 54°32' E 018°31'0 0.0
2017-Nov-14 11:59N 54°32' E 018°31'0 0.0
2017-Nov-14 11:26N 54°32' E 018°31'0 0.0
2017-Nov-14 10:59N 54°32' E 018°31'0 0.0
2017-Nov-14 10:29N 54°32' E 018°31'0 0.0
2017-Nov-14 09:59N 54°32' E 018°31'0 0.0
2017-Nov-14 09:29N 54°32' E 018°31'0 0.0
2017-Nov-14 09:00N 54°32' E 018°31'0 0.0
2017-Nov-14 08:30N 54°32' E 018°31'0 0.0
2017-Nov-14 08:00N 54°32' E 018°31'0 0.0
2017-Nov-14 07:30N 54°32' E 018°31'0 0.0
2017-Nov-14 07:00N 54°32' E 018°31'0 0.0
2017-Nov-14 06:30N 54°32' E 018°31'0 0.0
2017-Nov-14 06:00N 54°32' E 018°31'0 0.0
2017-Nov-14 05:30N 54°32' E 018°31'0 0.0
2017-Nov-14 05:00N 54°32' E 018°31'0 0.0
2017-Nov-14 04:30N 54°32' E 018°31'0 0.0
2017-Nov-14 04:00N 54°32' E 018°31'0 0.0
2017-Nov-14 03:30N 54°32' E 018°31'0 0.0
2017-Nov-14 03:00N 54°32' E 018°31'0 0.0
2017-Nov-14 02:30N 54°32' E 018°31'0 0.0
2017-Nov-14 02:00N 54°32' E 018°31'0 0.0
2017-Nov-14 01:30N 54°32' E 018°31'0 0.0
2017-Nov-14 01:00N 54°32' E 018°31'0 0.0
2017-Nov-14 00:30N 54°32' E 018°31'0 0.0
2017-Nov-14 00:00N 54°32' E 018°31'0 0.0
2017-Nov-13 23:30N 54°32' E 018°31'0 0.0
2017-Nov-13 23:00N 54°32' E 018°31'0 0.0
2017-Nov-13 22:30N 54°32' E 018°31'0 0.0
2017-Nov-13 22:00N 54°32' E 018°31'  
Track history (hours):
 
Tides and Currents Weather Stations Pressure Air Temp Water Temp Dewpoint Dewpoint Depression Visibility Wind Speed Wind Dir Waves Ship Positions

Serval

Last reported at 2017-Nov-23 10:58 UTC. Time now 2017-Nov-25 00:16 UTC.
Position N 54°41' E 013°50'.

Length 30 m; draft 5 m.

Type: . MMSI: 377103000.

Date/timePositionNaut miles runAvg speedWind from/ knotsBaromVisibWave heightAir tempDewpointWater temp
2017-Nov-23 10:58N 54°41' E 013°50'  
2017-Nov-16 02:37N 54°57' E 018°12'4 7.2
2017-Nov-16 02:06N 54°57' E 018°19'1 7.3
2017-Nov-16 02:00N 54°56' E 018°20'4 7.2
2017-Nov-16 01:30N 54°56' E 018°26'4 7.3
2017-Nov-16 01:00N 54°54' E 018°32'4 7.5
2017-Nov-16 00:30N 54°53' E 018°37'4 7.6
2017-Nov-16 00:00N 54°51' E 018°43'4 7.7
2017-Nov-15 23:30N 54°48' E 018°47'4 8.1
2017-Nov-15 23:00N 54°45' E 018°52'4 8.1
2017-Nov-15 22:30N 54°41' E 018°56'4 7.3
2017-Nov-15 22:00N 54°38' E 018°55'4 8.6
2017-Nov-15 21:30N 54°34' E 018°52'4 7.4
2017-Nov-15 21:00N 54°32' E 018°46'4 7.5
2017-Nov-15 20:30N 54°32' E 018°40'4 7.3
2017-Nov-15 20:00N 54°32' E 018°34'1 2.7
2017-Nov-15 19:29N 54°32' E 018°31'0 0.0
2017-Nov-15 18:59N 54°32' E 018°31'0 0.0
2017-Nov-15 18:29N 54°32' E 018°31'0 0.0
2017-Nov-15 17:59N 54°32' E 018°31'0 0.0
2017-Nov-15 17:29N 54°32' E 018°31'0 0.0
2017-Nov-15 16:59N 54°32' E 018°31'0 0.0
2017-Nov-15 16:29N 54°32' E 018°31'0 0.0
2017-Nov-15 15:59N 54°32' E 018°31'0 0.0
2017-Nov-15 15:29N 54°32' E 018°31'0 0.0
2017-Nov-15 14:59N 54°32' E 018°31'0 0.0
2017-Nov-15 14:29N 54°32' E 018°31'0 0.0
2017-Nov-15 13:59N 54°32' E 018°31'0 0.0
2017-Nov-15 13:29N 54°32' E 018°31'0 0.0
2017-Nov-15 12:59N 54°32' E 018°31'0 0.0
2017-Nov-15 12:29N 54°32' E 018°31'0 0.0
2017-Nov-15 11:59N 54°32' E 018°31'0 0.0
2017-Nov-15 11:29N 54°32' E 018°31'0 0.0
2017-Nov-15 10:59N 54°32' E 018°31'0 0.0
2017-Nov-15 10:29N 54°32' E 018°31'0 0.0
2017-Nov-15 09:59N 54°32' E 018°31'0 0.0
2017-Nov-15 09:29N 54°32' E 018°31'0 0.0
2017-Nov-15 08:59N 54°32' E 018°31'0 0.0
2017-Nov-15 08:29N 54°32' E 018°31'0 0.0
2017-Nov-15 07:59N 54°32' E 018°31'0 0.0
2017-Nov-15 07:29N 54°32' E 018°31'0 0.0
2017-Nov-15 06:59N 54°32' E 018°31'0 0.0
2017-Nov-15 06:29N 54°32' E 018°31'0 0.0
2017-Nov-15 05:59N 54°32' E 018°31'0 0.0
2017-Nov-15 05:29N 54°32' E 018°31'0 0.0
2017-Nov-15 04:59N 54°32' E 018°31'0 0.0
2017-Nov-15 04:29N 54°32' E 018°31'0 0.0
2017-Nov-15 03:59N 54°32' E 018°31'0 0.0
2017-Nov-15 03:29N 54°32' E 018°31'0 0.0
2017-Nov-15 02:59N 54°32' E 018°31'0 0.0
2017-Nov-15 02:29N 54°32' E 018°31'0 0.0
2017-Nov-15 01:59N 54°32' E 018°31'0 0.0
2017-Nov-15 01:29N 54°32' E 018°31'0 0.0
2017-Nov-15 00:59N 54°32' E 018°31'0 0.0
2017-Nov-15 00:29N 54°32' E 018°31'0 0.0
2017-Nov-14 23:59N 54°32' E 018°31'0 0.0
2017-Nov-14 23:29N 54°32' E 018°31'0 0.0
2017-Nov-14 22:59N 54°32' E 018°31'0 0.0
2017-Nov-14 22:29N 54°32' E 018°31'0 0.0
2017-Nov-14 21:59N 54°32' E 018°31'0 0.0
2017-Nov-14 21:29N 54°32' E 018°31'0 0.0
2017-Nov-14 20:59N 54°32' E 018°31'0 0.0
2017-Nov-14 20:26N 54°32' E 018°31'0 0.0
2017-Nov-14 19:59N 54°32' E 018°31'0 0.0
2017-Nov-14 19:29N 54°32' E 018°31'0 0.0
2017-Nov-14 18:59N 54°32' E 018°31'0 0.0
2017-Nov-14 18:29N 54°32' E 018°31'0 0.0
2017-Nov-14 17:59N 54°32' E 018°31'0 0.0
2017-Nov-14 17:29N 54°32' E 018°31'0 0.0
2017-Nov-14 16:59N 54°32' E 018°31'0 0.0
2017-Nov-14 16:29N 54°32' E 018°31'0 0.0
2017-Nov-14 15:59N 54°32' E 018°31'0 0.0
2017-Nov-14 15:29N 54°32' E 018°31'0 0.0
2017-Nov-14 14:59N 54°32' E 018°31'0 0.0
2017-Nov-14 14:29N 54°32' E 018°31'0 0.0
2017-Nov-14 13:59N 54°32' E 018°31'0 0.0
2017-Nov-14 13:29N 54°32' E 018°31'0 0.0
2017-Nov-14 12:59N 54°32' E 018°31'0 0.0
2017-Nov-14 12:29N 54°32' E 018°31'0 0.0
2017-Nov-14 11:59N 54°32' E 018°31'0 0.0
2017-Nov-14 11:26N 54°32' E 018°31'0 0.0
2017-Nov-14 10:59N 54°32' E 018°31'0 0.0
2017-Nov-14 10:29N 54°32' E 018°31'0 0.0
2017-Nov-14 09:59N 54°32' E 018°31'0 0.0
2017-Nov-14 09:29N 54°32' E 018°31'0 0.0
2017-Nov-14 09:00N 54°32' E 018°31'0 0.0
2017-Nov-14 08:30N 54°32' E 018°31'0 0.0
2017-Nov-14 08:00N 54°32' E 018°31'0 0.0
2017-Nov-14 07:30N 54°32' E 018°31'0 0.0
2017-Nov-14 07:00N 54°32' E 018°31'0 0.0
2017-Nov-14 06:30N 54°32' E 018°31'0 0.0
2017-Nov-14 06:00N 54°32' E 018°31'0 0.0
2017-Nov-14 05:30N 54°32' E 018°31'0 0.0
2017-Nov-14 05:00N 54°32' E 018°31'0 0.0
2017-Nov-14 04:30N 54°32' E 018°31'0 0.0
2017-Nov-14 04:00N 54°32' E 018°31'0 0.0
2017-Nov-14 03:30N 54°32' E 018°31'0 0.0
2017-Nov-14 03:00N 54°32' E 018°31'0 0.0
2017-Nov-14 02:30N 54°32' E 018°31'0 0.0
2017-Nov-14 02:00N 54°32' E 018°31'0 0.0
2017-Nov-14 01:30N 54°32' E 018°31'0 0.0
2017-Nov-14 01:00N 54°32' E 018°31'0 0.0
2017-Nov-14 00:30N 54°32' E 018°31'0 0.0
2017-Nov-14 00:00N 54°32' E 018°31'0 0.0
2017-Nov-13 23:30N 54°32' E 018°31'0 0.0
2017-Nov-13 23:00N 54°32' E 018°31'0 0.0
2017-Nov-13 22:30N 54°32' E 018°31'0 0.0
2017-Nov-13 22:00N 54°32' E 018°31'  

Dump ship's entire track history